CST,Max TemperatureF,Mean TemperatureF,Min TemperatureF,Max Dew PointF,MeanDew PointF,Min DewpointF,Max Humidity, Mean Humidity, Min Humidity, Max Sea Level PressureIn, Mean Sea Level PressureIn, Min Sea Level PressureIn, Max VisibilityMiles, Mean VisibilityMiles, Min VisibilityMiles, Max Wind SpeedMPH, Mean Wind SpeedMPH, Max Gust SpeedMPH,PrecipitationIn, CloudCover, Events, WindDirDegrees
2012-11-1,87,77,67,69,65,57,97,67,37,30.08,30.01,29.97,10,10,4,15,6,20,0.00,1,,124
2012-11-2,88,77,66,70,66,63,93,69,45,30.03,29.98,29.93,10,10,10,21,9,28,0.00,1,,154
2012-11-3,89,78,67,72,69,66,100,77,53,30.04,29.99,29.94,10,10,10,21,8,26,0.00,2,,142
2012-11-4,88,78,67,73,68,63,93,73,53,30.08,30.03,30.00,10,10,6,25,4,32,0.01,1,Rain,130
2012-11-5,90,76,62,71,66,61,93,69,44,30.08,30.02,29.95,10,10,9,15,4,18,0.00,0,,168
2012-11-6,87,76,65,71,65,57,100,72,43,30.12,30.06,29.98,10,8,2,17,6,21,0.00,0,,107
2012-11-7,87,73,59,63,57,52,90,60,30,30.17,30.11,30.05,10,10,10,15,4,18,0.00,0,,122
2012-11-8,86,74,62,66,62,58,93,69,45,30.14,30.08,30.03,10,10,7,24,12,29,0.00,0,,150
2012-11-9,87,78,69,65,62,59,84,62,40,30.08,30.03,29.98,10,10,10,28,14,35,0.00,0,,145
2012-11-10,87,78,69,68,64,60,78,59,40,30.02,29.96,29.91,10,10,10,29,15,37,0.00,1,,149
2012-11-11,88,81,74,70,67,65,87,69,50,30.05,29.91,29.85,10,10,10,31,16,39,0.00,3,,158
2012-11-12,75,69,62,70,57,38,97,68,39,30.36,30.22,30.04,10,10,6,26,11,38,0.05,6,Rain,357
2012-11-13,73,66,59,60,52,39,78,59,39,30.35,30.28,30.20,10,10,10,20,10,25,T,8,,5
2012-11-14,73,70,66,61,57,54,81,67,53,30.30,30.26,30.22,10,10,10,18,10,24,0.00,8,,30
2012-11-15,75,69,62,67,59,45,93,73,52,30.23,30.18,30.11,10,10,5,13,7,17,0.04,8,Rain,40
2012-11-16,78,73,67,67,61,57,90,72,54,30.27,30.21,30.15,10,10,10,21,9,26,T,8,Rain,41
2012-11-17,78,69,59,56,55,53,87,65,43,30.30,30.26,30.23,10,10,10,15,5,20,0.00,5,,16
2012-11-18,79,68,57,58,56,54,93,69,45,30.24,30.20,30.16,10,10,10,15,6,20,0.00,2,,84
2012-11-19,82,72,62,60,59,57,84,68,51,30.22,30.17,30.12,10,10,10,13,6,16,0.00,2,,94
2012-11-20,82,70,57,65,61,56,93,71,49,30.21,30.16,30.12,10,10,10,13,4,16,0.00,2,,48
2012-11-21,83,71,59,66,60,58,100,72,43,30.23,30.18,30.14,10,9,5,17,6,22,0.00,0,,64
2012-11-22,84,72,60,64,61,58,90,67,43,30.17,30.12,30.07,10,10,10,17,8,23,0.00,2,,131
2012-11-23,86,76,65,68,63,60,93,69,44,30.26,30.18,30.10,10,10,10,17,7,26,0.02,6,Rain-Thunderstorm,79
2012-11-24,70,64,58,63,58,53,93,81,68,30.32,30.24,30.16,10,10,9,17,9,23,0.03,7,Rain,339
2012-11-25,81,70,58,65,60,53,93,76,58,30.14,30.04,29.95,10,10,10,15,7,18,T,4,Rain,242
2012-11-26,86,75,64,70,67,64,100,78,55,30.10,30.00,29.94,10,10,5,25,9,31,T,2,,174
2012-11-27,77,68,58,68,59,46,100,73,46,30.32,30.21,30.04,10,9,5,22,8,28,0.01,3,Rain,1
2012-11-28,76,65,54,59,55,47,100,75,50,30.38,30.30,30.24,10,10,6,14,7,18,0.00,1,,353
2012-11-29,79,68,56,67,62,55,100,79,58,30.22,30.15,30.09,10,10,7,16,6,20,0.00,5,,82
2012-11-30,85,75,65,70,67,64,100,78,55,30.14,30.10,30.05,10,10,2,17,7,22,0.00,3,,137